Abidjan, Ivory Coast

3:04 PM GMT on August 20, 2014 (GMT +0000)
Felix Houphouet-Boigny | Change Station
CLOSE
Current Station
Airport
Location: Abidjan,
Elevation: 26 ft
Nearby Weather Stations

Elev 26 ft 5.26 °N, 3.93 °W | Updated 34 minutes ago

Overcast
Overcast
79 °F
Feels Like 79 °F
N
13
Wind Variable Wind from SW

Today
High -- | Low -- °F
--% Chance of Precip.
Yesterday
High -- | Low -- °F
Precip. -- in
6:11 AM 6:27 PM
Waning Crescent, 21% visible
Pressure 29.86 in
Visibility 6.2 miles
Clouds Scattered Clouds 1200 ft
Overcast 2000 ft
Dew Point 75 °F
Humidity 89%
Rainfall 0.00 in
Snow Depth Not available.
UV 4 out of 12
Pollen Not available.
Air Quality Not available.
Flu Activity Not available.
METAR DIAP 201430Z 23011KT 9999 SCT012 OVC020 26/24 Q1011 NOSIG

More Conditions Fewer Conditions

Pressure 29.86 in
Visibility 6.2 miles
Clouds Scattered Clouds 1200 ft
Overcast 2000 ft
Dew Point 75 °F
Humidity 89%
Rainfall 0.00 in
Snow Depth Not available.
UV 4 out of 12
Pollen Not available.
Air Quality Not available.
Flu Activity Not available.
METAR DIAP 201430Z 23011KT 9999 SCT012 OVC020 26/24 Q1011 NOSIG

More Conditions Fewer Conditions

10-Day Weather Forecast

Almanac

Astronomy

Aug. 20, 2014 Rise Set
Actual Time 6:11 AM GMT 6:27 PM GMT
Civil Twilight 5:49 AM GMT 6:48 PM GMT
Nautical Twilight 5:25 AM GMT 7:13 PM GMT
Astronomical Twilight 5:00 AM GMT 7:37 PM GMT
Moon 2:01 AM GMT 2:39 PM GMT
Length of Visible Light 12h 58m
Length of Day
12h 15m
Tomorrow will be 0m 17s shorter.
Waning Crescent, 21% of the Moon is Illuminated
Today
Waning Crescent
Aug 25
New
Sep 2
First Quarter
Sep 8
Full
Sep 15
Last Quarter

Today's Extremes

Country Highs Country Lows

Community

WunderPhotos

Upload Photos

1,745,661 photos uploaded!

Nearby

Snow Depth

Not available.

Earthquake Activity

City Distance Mag. Time & Date
No recent earthquake activity has been reported nearby.
Minimum magnitude displayed is 2.5.

Coastal Water Temperatures

Place Temperature
No Stations Reporting

Nearby Weather Stations